Indianapolis, Indiana
Traffic Map
Current Weather Conditions
Indianapolis, Indiana
Few Clouds
Few Clouds
24°
Feels Like: 24°
Wind Chill: 24° Ceiling: Unl
Heat Index: 24° Visibility: 10mi
Dew Point: 16° Wind: 9mph
Humidity: 58% Direction: 340° (NNW)
Pressure: 30.1in Gusts: 0mph
Raw Report DataKIND 281454Z 34008KT 10SM FEW037 FEW250 24/16 A3010 RMK AO2 SLP184 T02440156 50004
Traffic Incident Summary
Active as of:
Severity:
Category:
InformationThere was an issue retrieving the traffic information for this location. Please try a different location or try again shortly.
Advertisements
Track Severe Weather on mobile